Aeroporto :
LOGIN :

Iscrizione | Disclaimer

   EN    FR    IT 

 










Sommario :    VFR   VFR Marginale   IFR   IFR Intensivo   IFR Molto Intensivo
Visibilità : 
Base nubi : 
>= 8 km
>= 3000ft
5 / 8 km
1000 / 3000 ft
1500m / 5 km
500 / 1000 ft
800 / 1500m
200 / 500 ft
< 800m
< 200 ft
Simboli :   Temporali  Nebbia  Neve Forte  Precipitazioni Forti  Vento > 20 kt
SIGMETs :   Varie  Temporali  Ghiacco  Turbolenza  Onda orograficha  Ceneri Vulcaniche






- Altitudine del aeroporto : 45 ft


LIQW - Luni - Sarzana Genoa

ULTIMO METAR :
  • 030855Z 29002KT 9999 SCT025 07/05 Q1007 RMK BKN SCT060 VIS MIN 9999 WIND THR18 03003KT BLU

METARs OBSOLETI :
  • 030755Z 26005KT 9999 SCT025 07/05 Q1006 RMK BKN SCT060 VIS MIN 9999 WIND THR18 30007KT BLU
  • 030655Z 26006KT 9999 SCT025 07/04 Q1006 RMK OVC BKN060 VIS MIN 9999 WIND THR18 30008KT BLU

TAF TAF LIQW
Valido dal 03 a 09 ore il 03 a 18 ore UTC


030800Z 0309/0318 26006KT 9999 SCT025
PROB40
TEMPO 0309/0312 5000 RA BR SCT020 BKN050



MetMap, La meteo Aeronautica in un colpo d'occhio ! - Copyright ORBIFLY Dicembre 2007 - Disclaimer

ORBIFLY MET'MAP TEAM :

Programmazione e sviluppo : Alexandra Zaïnal
Concezione : Baudouin d'Aumeries
Aiuto per la programmazione : Marc-Olivier Méhu
Supporto tecnico e logistico : Manuel Goepfert
Aiuto per la traduzione : Arnaldo La Scala

Contatto : metmap@orbifly.com




FONTI E CREDITI :

   NOAA